sensor_id;sensor_type;location;lat;lon;timestamp;P1;durP1;ratioP1;P2;durP2;ratioP2
40945;SDS011;55635;50.264;11.918;2022-07-23T00:01:10;4.70;;;3.90;;
40945;SDS011;55635;50.264;11.918;2022-07-23T00:03:51;7.93;;;3.78;;
40945;SDS011;55635;50.264;11.918;2022-07-23T00:06:34;5.90;;;3.60;;
40945;SDS011;55635;50.264;11.918;2022-07-23T00:09:15;4.00;;;3.42;;
40945;SDS011;55635;50.264;11.918;2022-07-23T00:11:56;4.28;;;3.95;;
40945;SDS011;55635;50.264;11.918;2022-07-23T00:14:37;4.53;;;4.13;;
40945;SDS011;55635;50.264;11.918;2022-07-23T00:17:18;5.45;;;3.63;;
40945;SDS011;55635;50.264;11.918;2022-07-23T00:19:59;4.05;;;3.75;;
40945;SDS011;55635;50.264;11.918;2022-07-23T00:22:51;5.55;;;3.80;;
40945;SDS011;55635;50.264;11.918;2022-07-23T00:25:34;7.47;;;3.50;;
40945;SDS011;55635;50.264;11.918;2022-07-23T00:28:15;4.00;;;3.60;;
40945;SDS011;55635;50.264;11.918;2022-07-23T00:30:56;5.30;;;3.97;;
40945;SDS011;55635;50.264;11.918;2022-07-23T00:33:37;4.47;;;4.07;;
40945;SDS011;55635;50.264;11.918;2022-07-23T00:36:18;4.38;;;4.05;;
40945;SDS011;55635;50.264;11.918;2022-07-23T00:38:59;7.90;;;4.13;;
40945;SDS011;55635;50.264;11.918;2022-07-23T00:41:41;5.82;;;4.13;;
40945;SDS011;55635;50.264;11.918;2022-07-23T00:44:26;5.70;;;3.67;;
40945;SDS011;55635;50.264;11.918;2022-07-23T00:47:08;6.88;;;3.90;;
40945;SDS011;55635;50.264;11.918;2022-07-23T00:49:49;5.15;;;4.30;;
40945;SDS011;55635;50.264;11.918;2022-07-23T00:52:31;4.95;;;4.00;;
40945;SDS011;55635;50.264;11.918;2022-07-23T00:55:14;4.28;;;3.88;;
40945;SDS011;55635;50.264;11.918;2022-07-23T00:57:55;4.20;;;3.78;;
40945;SDS011;55635;50.264;11.918;2022-07-23T01:00:39;4.65;;;4.22;;
40945;SDS011;55635;50.264;11.918;2022-07-23T01:03:20;4.30;;;3.80;;
40945;SDS011;55635;50.264;11.918;2022-07-23T01:06:02;6.30;;;4.07;;
40945;SDS011;55635;50.264;11.918;2022-07-23T01:08:43;4.20;;;3.80;;
40945;SDS011;55635;50.264;11.918;2022-07-23T01:11:26;7.95;;;3.80;;
40945;SDS011;55635;50.264;11.918;2022-07-23T01:14:15;4.63;;;4.22;;
40945;SDS011;55635;50.264;11.918;2022-07-23T01:16:58;5.70;;;4.47;;
40945;SDS011;55635;50.264;11.918;2022-07-23T01:19:39;4.65;;;4.15;;
40945;SDS011;55635;50.264;11.918;2022-07-23T01:22:20;7.38;;;4.45;;
40945;SDS011;55635;50.264;11.918;2022-07-23T01:25:02;6.45;;;4.75;;
40945;SDS011;55635;50.264;11.918;2022-07-23T01:27:44;5.00;;;4.50;;
40945;SDS011;55635;50.264;11.918;2022-07-23T01:30:25;5.00;;;4.30;;
40945;SDS011;55635;50.264;11.918;2022-07-23T01:33:07;8.65;;;4.65;;
40945;SDS011;55635;50.264;11.918;2022-07-23T01:35:48;4.50;;;4.20;;
40945;SDS011;55635;50.264;11.918;2022-07-23T01:38:35;5.57;;;4.32;;
40945;SDS011;55635;50.264;11.918;2022-07-23T01:41:16;6.72;;;4.65;;
40945;SDS011;55635;50.264;11.918;2022-07-23T01:43:57;5.40;;;4.47;;
40945;SDS011;55635;50.264;11.918;2022-07-23T01:46:40;5.60;;;4.40;;
40945;SDS011;55635;50.264;11.918;2022-07-23T01:49:21;5.22;;;4.40;;
40945;SDS011;55635;50.264;11.918;2022-07-23T01:52:20;7.90;;;4.50;;
40945;SDS011;55635;50.264;11.918;2022-07-23T01:55:04;4.68;;;4.35;;
40945;SDS011;55635;50.264;11.918;2022-07-23T01:57:47;5.00;;;4.60;;
40945;SDS011;55635;50.264;11.918;2022-07-23T02:00:30;6.30;;;4.93;;
40945;SDS011;55635;50.264;11.918;2022-07-23T02:03:12;5.13;;;4.72;;
40945;SDS011;55635;50.264;11.918;2022-07-23T02:05:53;4.93;;;4.22;;
40945;SDS011;55635;50.264;11.918;2022-07-23T02:08:34;8.65;;;4.85;;
40945;SDS011;55635;50.264;11.918;2022-07-23T02:11:15;8.25;;;4.95;;
40945;SDS011;55635;50.264;11.918;2022-07-23T02:13:56;5.68;;;4.55;;
40945;SDS011;55635;50.264;11.918;2022-07-23T02:16:38;8.05;;;5.50;;
40945;SDS011;55635;50.264;11.918;2022-07-23T02:19:19;6.35;;;5.00;;
40945;SDS011;55635;50.264;11.918;2022-07-23T02:22:00;5.35;;;4.40;;
40945;SDS011;55635;50.264;11.918;2022-07-23T02:24:42;4.97;;;4.63;;
40945;SDS011;55635;50.264;11.918;2022-07-23T02:27:23;5.88;;;5.32;;
40945;SDS011;55635;50.264;11.918;2022-07-23T02:30:05;7.90;;;5.00;;
40945;SDS011;55635;50.264;11.918;2022-07-23T02:32:48;8.65;;;4.93;;
40945;SDS011;55635;50.264;11.918;2022-07-23T02:35:29;5.38;;;4.70;;
40945;SDS011;55635;50.264;11.918;2022-07-23T02:38:13;5.30;;;4.90;;
40945;SDS011;55635;50.264;11.918;2022-07-23T02:40:54;7.05;;;5.55;;
40945;SDS011;55635;50.264;11.918;2022-07-23T02:43:35;7.00;;;4.93;;
40945;SDS011;55635;50.264;11.918;2022-07-23T02:46:16;5.07;;;4.53;;
40945;SDS011;55635;50.264;11.918;2022-07-23T02:48:57;6.65;;;5.10;;
40945;SDS011;55635;50.264;11.918;2022-07-23T02:51:38;7.25;;;5.18;;
40945;SDS011;55635;50.264;11.918;2022-07-23T02:54:21;8.07;;;5.65;;
40945;SDS011;55635;50.264;11.918;2022-07-23T02:57:02;5.30;;;4.82;;
40945;SDS011;55635;50.264;11.918;2022-07-23T02:59:44;5.13;;;4.75;;
40945;SDS011;55635;50.264;11.918;2022-07-23T03:02:26;5.35;;;4.82;;
40945;SDS011;55635;50.264;11.918;2022-07-23T03:05:07;7.18;;;5.40;;
40945;SDS011;55635;50.264;11.918;2022-07-23T03:07:49;5.20;;;4.80;;
40945;SDS011;55635;50.264;11.918;2022-07-23T03:10:30;9.73;;;5.15;;
40945;SDS011;55635;50.264;11.918;2022-07-23T03:13:11;8.18;;;5.00;;
40945;SDS011;55635;50.264;11.918;2022-07-23T03:15:52;5.35;;;4.78;;
40945;SDS011;55635;50.264;11.918;2022-07-23T03:18:33;7.15;;;5.50;;
40945;SDS011;55635;50.264;11.918;2022-07-23T03:21:14;12.45;;;5.35;;
40945;SDS011;55635;50.264;11.918;2022-07-23T03:23:55;5.60;;;5.10;;
40945;SDS011;55635;50.264;11.918;2022-07-23T03:26:36;9.52;;;5.40;;
40945;SDS011;55635;50.264;11.918;2022-07-23T03:29:17;11.30;;;6.53;;
40945;SDS011;55635;50.264;11.918;2022-07-23T03:31:58;6.28;;;5.68;;
40945;SDS011;55635;50.264;11.918;2022-07-23T03:34:40;7.35;;;5.82;;
40945;SDS011;55635;50.264;11.918;2022-07-23T03:37:21;8.35;;;5.80;;
40945;SDS011;55635;50.264;11.918;2022-07-23T03:40:02;6.15;;;5.70;;
40945;SDS011;55635;50.264;11.918;2022-07-23T03:42:44;7.40;;;6.72;;
40945;SDS011;55635;50.264;11.918;2022-07-23T03:45:26;5.75;;;5.35;;
40945;SDS011;55635;50.264;11.918;2022-07-23T03:48:07;7.75;;;6.13;;
40945;SDS011;55635;50.264;11.918;2022-07-23T03:50:48;6.63;;;6.00;;
40945;SDS011;55635;50.264;11.918;2022-07-23T03:53:29;6.30;;;5.70;;
40945;SDS011;55635;50.264;11.918;2022-07-23T03:56:11;6.43;;;5.90;;
40945;SDS011;55635;50.264;11.918;2022-07-23T03:58:52;9.75;;;6.30;;
40945;SDS011;55635;50.264;11.918;2022-07-23T04:01:33;6.65;;;5.72;;
40945;SDS011;55635;50.264;11.918;2022-07-23T04:04:14;6.75;;;5.68;;
40945;SDS011;55635;50.264;11.918;2022-07-23T04:06:58;8.38;;;5.63;;
40945;SDS011;55635;50.264;11.918;2022-07-23T04:09:40;7.38;;;6.55;;
40945;SDS011;55635;50.264;11.918;2022-07-23T04:12:22;7.30;;;6.38;;
40945;SDS011;55635;50.264;11.918;2022-07-23T04:15:04;6.70;;;5.72;;
40945;SDS011;55635;50.264;11.918;2022-07-23T04:17:47;6.53;;;6.00;;
40945;SDS011;55635;50.264;11.918;2022-07-23T04:20:31;9.13;;;6.82;;
40945;SDS011;55635;50.264;11.918;2022-07-23T04:23:17;6.82;;;6.10;;
40945;SDS011;55635;50.264;11.918;2022-07-23T04:25:59;7.15;;;6.35;;
40945;SDS011;55635;50.264;11.918;2022-07-23T04:28:41;7.30;;;6.55;;
40945;SDS011;55635;50.264;11.918;2022-07-23T04:31:22;7.35;;;6.43;;
40945;SDS011;55635;50.264;11.918;2022-07-23T04:34:03;6.95;;;6.38;;
40945;SDS011;55635;50.264;11.918;2022-07-23T04:36:44;8.13;;;7.30;;
40945;SDS011;55635;50.264;11.918;2022-07-23T04:39:26;12.10;;;8.07;;
40945;SDS011;55635;50.264;11.918;2022-07-23T04:42:07;8.60;;;7.15;;
40945;SDS011;55635;50.264;11.918;2022-07-23T04:44:48;8.88;;;7.97;;
40945;SDS011;55635;50.264;11.918;2022-07-23T04:47:30;8.00;;;7.30;;
40945;SDS011;55635;50.264;11.918;2022-07-23T04:50:12;8.55;;;7.22;;
40945;SDS011;55635;50.264;11.918;2022-07-23T04:52:57;10.90;;;8.65;;
40945;SDS011;55635;50.264;11.918;2022-07-23T04:55:38;8.52;;;7.78;;
40945;SDS011;55635;50.264;11.918;2022-07-23T04:58:20;8.38;;;7.35;;
40945;SDS011;55635;50.264;11.918;2022-07-23T05:01:01;8.45;;;7.60;;
40945;SDS011;55635;50.264;11.918;2022-07-23T05:03:45;8.50;;;7.60;;
40945;SDS011;55635;50.264;11.918;2022-07-23T05:06:29;8.48;;;7.68;;
40945;SDS011;55635;50.264;11.918;2022-07-23T05:09:10;8.82;;;8.02;;
40945;SDS011;55635;50.264;11.918;2022-07-23T05:11:51;8.73;;;7.85;;
40945;SDS011;55635;50.264;11.918;2022-07-23T05:14:34;10.02;;;8.07;;
40945;SDS011;55635;50.264;11.918;2022-07-23T05:17:15;9.35;;;8.32;;
40945;SDS011;55635;50.264;11.918;2022-07-23T05:19:56;10.40;;;8.57;;
40945;SDS011;55635;50.264;11.918;2022-07-23T05:22:37;9.88;;;8.95;;
40945;SDS011;55635;50.264;11.918;2022-07-23T05:25:18;11.50;;;9.60;;
40945;SDS011;55635;50.264;11.918;2022-07-23T05:27:59;9.43;;;7.93;;
40945;SDS011;55635;50.264;11.918;2022-07-23T05:30:40;12.25;;;9.55;;
40945;SDS011;55635;50.264;11.918;2022-07-23T05:33:25;9.45;;;8.23;;
40945;SDS011;55635;50.264;11.918;2022-07-23T05:36:07;8.70;;;7.90;;
40945;SDS011;55635;50.264;11.918;2022-07-23T05:38:55;10.80;;;8.38;;
40945;SDS011;55635;50.264;11.918;2022-07-23T05:41:36;9.75;;;8.20;;
40945;SDS011;55635;50.264;11.918;2022-07-23T05:44:18;10.23;;;8.23;;
40945;SDS011;55635;50.264;11.918;2022-07-23T05:47:01;10.95;;;8.43;;
40945;SDS011;55635;50.264;11.918;2022-07-23T05:49:42;10.40;;;7.70;;
40945;SDS011;55635;50.264;11.918;2022-07-23T05:52:43;9.13;;;8.15;;
40945;SDS011;55635;50.264;11.918;2022-07-23T05:55:44;9.00;;;8.10;;
40945;SDS011;55635;50.264;11.918;2022-07-23T05:58:25;10.60;;;8.80;;
40945;SDS011;55635;50.264;11.918;2022-07-23T06:01:07;9.65;;;7.85;;
40945;SDS011;55635;50.264;11.918;2022-07-23T06:03:58;9.18;;;8.23;;
40945;SDS011;55635;50.264;11.918;2022-07-23T06:06:46;9.85;;;8.77;;
40945;SDS011;55635;50.264;11.918;2022-07-23T06:09:28;9.63;;;8.00;;
40945;SDS011;55635;50.264;11.918;2022-07-23T06:12:09;11.00;;;9.38;;
40945;SDS011;55635;50.264;11.918;2022-07-23T06:14:50;9.75;;;8.75;;
40945;SDS011;55635;50.264;11.918;2022-07-23T06:17:32;9.80;;;8.70;;
40945;SDS011;55635;50.264;11.918;2022-07-23T06:20:13;9.80;;;8.30;;
40945;SDS011;55635;50.264;11.918;2022-07-23T06:22:55;12.80;;;8.52;;
40945;SDS011;55635;50.264;11.918;2022-07-23T06:25:36;10.77;;;7.53;;
40945;SDS011;55635;50.264;11.918;2022-07-23T06:28:18;7.68;;;7.07;;
40945;SDS011;55635;50.264;11.918;2022-07-23T06:30:59;7.95;;;7.15;;
40945;SDS011;55635;50.264;11.918;2022-07-23T06:33:40;9.48;;;8.10;;
40945;SDS011;55635;50.264;11.918;2022-07-23T06:36:21;9.50;;;8.07;;
40945;SDS011;55635;50.264;11.918;2022-07-23T06:39:02;8.00;;;7.30;;
40945;SDS011;55635;50.264;11.918;2022-07-23T06:41:43;7.97;;;6.95;;
40945;SDS011;55635;50.264;11.918;2022-07-23T06:44:24;8.38;;;7.68;;
40945;SDS011;55635;50.264;11.918;2022-07-23T06:47:07;8.85;;;7.95;;
40945;SDS011;55635;50.264;11.918;2022-07-23T06:49:49;8.43;;;7.63;;
40945;SDS011;55635;50.264;11.918;2022-07-23T06:52:31;9.18;;;8.38;;
40945;SDS011;55635;50.264;11.918;2022-07-23T06:55:12;9.48;;;8.68;;
40945;SDS011;55635;50.264;11.918;2022-07-23T06:57:53;8.85;;;7.97;;
40945;SDS011;55635;50.264;11.918;2022-07-23T07:00:36;8.93;;;8.07;;
40945;SDS011;55635;50.264;11.918;2022-07-23T07:03:17;9.57;;;8.27;;
40945;SDS011;55635;50.264;11.918;2022-07-23T07:05:58;9.88;;;8.82;;
40945;SDS011;55635;50.264;11.918;2022-07-23T07:08:39;9.32;;;8.32;;
40945;SDS011;55635;50.264;11.918;2022-07-23T07:11:23;8.57;;;7.70;;
40945;SDS011;55635;50.264;11.918;2022-07-23T07:14:05;9.68;;;8.75;;
40945;SDS011;55635;50.264;11.918;2022-07-23T07:16:46;9.00;;;8.15;;
40945;SDS011;55635;50.264;11.918;2022-07-23T07:19:27;9.13;;;8.32;;
40945;SDS011;55635;50.264;11.918;2022-07-23T07:22:08;9.18;;;8.13;;
40945;SDS011;55635;50.264;11.918;2022-07-23T07:24:49;9.80;;;8.80;;
40945;SDS011;55635;50.264;11.918;2022-07-23T07:27:30;8.95;;;7.95;;
40945;SDS011;55635;50.264;11.918;2022-07-23T07:30:12;8.27;;;7.47;;
40945;SDS011;55635;50.264;11.918;2022-07-23T07:32:53;10.15;;;8.93;;
40945;SDS011;55635;50.264;11.918;2022-07-23T07:35:34;8.68;;;7.93;;
40945;SDS011;55635;50.264;11.918;2022-07-23T07:38:15;11.95;;;8.85;;
40945;SDS011;55635;50.264;11.918;2022-07-23T07:40:56;13.82;;;9.05;;
40945;SDS011;55635;50.264;11.918;2022-07-23T07:43:37;8.40;;;7.60;;
40945;SDS011;55635;50.264;11.918;2022-07-23T07:46:18;9.57;;;8.00;;
40945;SDS011;55635;50.264;11.918;2022-07-23T07:48:59;9.93;;;8.65;;
40945;SDS011;55635;50.264;11.918;2022-07-23T07:51:40;9.18;;;8.35;;
40945;SDS011;55635;50.264;11.918;2022-07-23T07:54:21;10.55;;;8.35;;
40945;SDS011;55635;50.264;11.918;2022-07-23T07:57:03;9.85;;;8.40;;
40945;SDS011;55635;50.264;11.918;2022-07-23T07:59:44;10.93;;;8.13;;
40945;SDS011;55635;50.264;11.918;2022-07-23T08:02:25;9.32;;;8.40;;
40945;SDS011;55635;50.264;11.918;2022-07-23T08:05:06;10.27;;;8.90;;
40945;SDS011;55635;50.264;11.918;2022-07-23T08:07:47;9.55;;;8.60;;
40945;SDS011;55635;50.264;11.918;2022-07-23T08:10:29;8.73;;;7.93;;
40945;SDS011;55635;50.264;11.918;2022-07-23T08:13:14;10.07;;;8.15;;
40945;SDS011;55635;50.264;11.918;2022-07-23T08:15:56;12.60;;;8.73;;
40945;SDS011;55635;50.264;11.918;2022-07-23T08:18:37;9.40;;;8.55;;
40945;SDS011;55635;50.264;11.918;2022-07-23T08:21:18;9.93;;;8.95;;
40945;SDS011;55635;50.264;11.918;2022-07-23T08:23:59;9.65;;;8.60;;
40945;SDS011;55635;50.264;11.918;2022-07-23T08:26:40;10.38;;;9.25;;
40945;SDS011;55635;50.264;11.918;2022-07-23T08:29:21;8.25;;;7.65;;
40945;SDS011;55635;50.264;11.918;2022-07-23T08:32:02;11.73;;;8.90;;
40945;SDS011;55635;50.264;11.918;2022-07-23T08:34:44;9.20;;;8.30;;
40945;SDS011;55635;50.264;11.918;2022-07-23T08:37:25;9.50;;;8.50;;
40945;SDS011;55635;50.264;11.918;2022-07-23T08:40:06;9.23;;;8.30;;
40945;SDS011;55635;50.264;11.918;2022-07-23T08:42:49;8.68;;;7.85;;
40945;SDS011;55635;50.264;11.918;2022-07-23T08:45:31;9.60;;;8.70;;
40945;SDS011;55635;50.264;11.918;2022-07-23T08:48:20;10.63;;;9.43;;
40945;SDS011;55635;50.264;11.918;2022-07-23T08:51:03;10.35;;;9.55;;
40945;SDS011;55635;50.264;11.918;2022-07-23T08:53:45;11.80;;;8.88;;
40945;SDS011;55635;50.264;11.918;2022-07-23T08:56:28;9.73;;;8.82;;
40945;SDS011;55635;50.264;11.918;2022-07-23T08:59:09;12.15;;;8.32;;
40945;SDS011;55635;50.264;11.918;2022-07-23T09:01:53;10.43;;;9.55;;
40945;SDS011;55635;50.264;11.918;2022-07-23T09:04:34;12.00;;;10.00;;
40945;SDS011;55635;50.264;11.918;2022-07-23T09:07:16;10.68;;;9.70;;
40945;SDS011;55635;50.264;11.918;2022-07-23T09:10:07;10.88;;;9.77;;
40945;SDS011;55635;50.264;11.918;2022-07-23T09:12:51;10.45;;;9.38;;
40945;SDS011;55635;50.264;11.918;2022-07-23T09:15:32;10.77;;;9.45;;
40945;SDS011;55635;50.264;11.918;2022-07-23T09:18:15;11.05;;;9.95;;
40945;SDS011;55635;50.264;11.918;2022-07-23T09:21:07;10.50;;;9.50;;
40945;SDS011;55635;50.264;11.918;2022-07-23T09:23:53;9.88;;;8.88;;
40945;SDS011;55635;50.264;11.918;2022-07-23T09:26:39;10.43;;;9.50;;
40945;SDS011;55635;50.264;11.918;2022-07-23T09:29:25;10.02;;;9.15;;
40945;SDS011;55635;50.264;11.918;2022-07-23T09:32:06;10.23;;;9.20;;
40945;SDS011;55635;50.264;11.918;2022-07-23T09:34:54;11.25;;;10.25;;
40945;SDS011;55635;50.264;11.918;2022-07-23T09:37:35;11.38;;;10.05;;
40945;SDS011;55635;50.264;11.918;2022-07-23T09:40:18;11.68;;;10.45;;
40945;SDS011;55635;50.264;11.918;2022-07-23T09:43:00;11.52;;;10.45;;
40945;SDS011;55635;50.264;11.918;2022-07-23T09:45:41;10.95;;;9.65;;
40945;SDS011;55635;50.264;11.918;2022-07-23T09:48:22;10.80;;;9.90;;
40945;SDS011;55635;50.264;11.918;2022-07-23T09:51:03;10.52;;;9.48;;
40945;SDS011;55635;50.264;11.918;2022-07-23T09:53:45;11.13;;;10.10;;
40945;SDS011;55635;50.264;11.918;2022-07-23T09:56:27;10.98;;;10.02;;
40945;SDS011;55635;50.264;11.918;2022-07-23T09:59:08;11.63;;;10.50;;
40945;SDS011;55635;50.264;11.918;2022-07-23T10:01:53;12.20;;;11.00;;
40945;SDS011;55635;50.264;11.918;2022-07-23T10:04:36;11.55;;;9.82;;
40945;SDS011;55635;50.264;11.918;2022-07-23T10:07:39;11.95;;;10.75;;
40945;SDS011;55635;50.264;11.918;2022-07-23T10:10:40;11.90;;;10.70;;
40945;SDS011;55635;50.264;11.918;2022-07-23T10:13:41;10.32;;;9.23;;
40945;SDS011;55635;50.264;11.918;2022-07-23T10:16:56;11.73;;;10.20;;
40945;SDS011;55635;50.264;11.918;2022-07-23T10:19:38;11.50;;;10.43;;
40945;SDS011;55635;50.264;11.918;2022-07-23T10:22:20;11.18;;;10.07;;
40945;SDS011;55635;50.264;11.918;2022-07-23T10:35:19;10.10;;;9.00;;
40945;SDS011;55635;50.264;11.918;2022-07-23T10:38:31;10.95;;;9.98;;
40945;SDS011;55635;50.264;11.918;2022-07-23T10:41:19;10.10;;;9.10;;
40945;SDS011;55635;50.264;11.918;2022-07-23T10:44:21;11.05;;;9.05;;
40945;SDS011;55635;50.264;11.918;2022-07-23T10:47:04;9.10;;;8.30;;
40945;SDS011;55635;50.264;11.918;2022-07-23T10:49:54;9.88;;;8.07;;
40945;SDS011;55635;50.264;11.918;2022-07-23T10:53:18;8.88;;;8.02;;
40945;SDS011;55635;50.264;11.918;2022-07-23T10:55:59;9.25;;;8.45;;
40945;SDS011;55635;50.264;11.918;2022-07-23T10:58:47;9.63;;;8.75;;
40945;SDS011;55635;50.264;11.918;2022-07-23T11:04:18;8.52;;;7.93;;
40945;SDS011;55635;50.264;11.918;2022-07-23T11:07:19;8.55;;;7.80;;
40945;SDS011;55635;50.264;11.918;2022-07-23T11:10:01;9.90;;;8.20;;
40945;SDS011;55635;50.264;11.918;2022-07-23T11:12:43;11.57;;;9.10;;
40945;SDS011;55635;50.264;11.918;2022-07-23T11:15:24;9.30;;;8.60;;
40945;SDS011;55635;50.264;11.918;2022-07-23T11:18:05;11.50;;;8.35;;
40945;SDS011;55635;50.264;11.918;2022-07-23T11:20:46;8.65;;;7.82;;
40945;SDS011;55635;50.264;11.918;2022-07-23T11:23:57;8.88;;;8.07;;
40945;SDS011;55635;50.264;11.918;2022-07-23T11:32:18;8.88;;;8.05;;
40945;SDS011;55635;50.264;11.918;2022-07-23T11:35:20;9.15;;;8.25;;
40945;SDS011;55635;50.264;11.918;2022-07-23T11:38:06;10.70;;;8.52;;
40945;SDS011;55635;50.264;11.918;2022-07-23T11:41:03;9.70;;;8.48;;
40945;SDS011;55635;50.264;11.918;2022-07-23T11:43:44;8.90;;;8.02;;
40945;SDS011;55635;50.264;11.918;2022-07-23T11:46:25;8.10;;;7.38;;
40945;SDS011;55635;50.264;11.918;2022-07-23T11:49:06;7.65;;;7.00;;
40945;SDS011;55635;50.264;11.918;2022-07-23T11:51:47;9.43;;;7.65;;
40945;SDS011;55635;50.264;11.918;2022-07-23T11:54:59;8.32;;;7.43;;
40945;SDS011;55635;50.264;11.918;2022-07-23T11:57:50;8.43;;;7.45;;
40945;SDS011;55635;50.264;11.918;2022-07-23T12:00:33;12.85;;;7.57;;
40945;SDS011;55635;50.264;11.918;2022-07-23T12:03:14;10.80;;;7.65;;
40945;SDS011;55635;50.264;11.918;2022-07-23T12:05:56;10.07;;;7.65;;
40945;SDS011;55635;50.264;11.918;2022-07-23T12:08:41;8.98;;;7.75;;
40945;SDS011;55635;50.264;11.918;2022-07-23T12:11:22;8.25;;;7.53;;
40945;SDS011;55635;50.264;11.918;2022-07-23T12:14:04;8.07;;;7.38;;
40945;SDS011;55635;50.264;11.918;2022-07-23T12:16:45;8.70;;;7.90;;
40945;SDS011;55635;50.264;11.918;2022-07-23T12:19:26;10.20;;;6.65;;
40945;SDS011;55635;50.264;11.918;2022-07-23T12:22:07;8.85;;;8.15;;
40945;SDS011;55635;50.264;11.918;2022-07-23T12:24:52;10.27;;;7.55;;
40945;SDS011;55635;50.264;11.918;2022-07-23T12:27:41;8.82;;;7.78;;
40945;SDS011;55635;50.264;11.918;2022-07-23T12:30:24;7.90;;;7.20;;
40945;SDS011;55635;50.264;11.918;2022-07-23T12:33:08;7.68;;;6.97;;
40945;SDS011;55635;50.264;11.918;2022-07-23T12:35:57;6.97;;;6.30;;
40945;SDS011;55635;50.264;11.918;2022-07-23T12:38:49;6.88;;;5.97;;
40945;SDS011;55635;50.264;11.918;2022-07-23T12:41:52;6.97;;;6.20;;
40945;SDS011;55635;50.264;11.918;2022-07-23T12:44:37;6.60;;;5.97;;
40945;SDS011;55635;50.264;11.918;2022-07-23T12:47:54;6.45;;;5.97;;
40945;SDS011;55635;50.264;11.918;2022-07-23T12:53:42;7.53;;;5.80;;
40945;SDS011;55635;50.264;11.918;2022-07-23T12:59:11;6.82;;;5.72;;
40945;SDS011;55635;50.264;11.918;2022-07-23T13:01:56;6.53;;;6.00;;
40945;SDS011;55635;50.264;11.918;2022-07-23T13:04:41;6.85;;;6.25;;
40945;SDS011;55635;50.264;11.918;2022-07-23T13:07:22;6.57;;;6.05;;
40945;SDS011;55635;50.264;11.918;2022-07-23T13:10:03;7.18;;;6.55;;
40945;SDS011;55635;50.264;11.918;2022-07-23T13:12:44;7.22;;;6.63;;
40945;SDS011;55635;50.264;11.918;2022-07-23T13:15:25;7.30;;;6.60;;
40945;SDS011;55635;50.264;11.918;2022-07-23T13:18:06;7.65;;;6.88;;
40945;SDS011;55635;50.264;11.918;2022-07-23T13:20:47;8.18;;;7.43;;
40945;SDS011;55635;50.264;11.918;2022-07-23T13:23:30;12.00;;;7.25;;
40945;SDS011;55635;50.264;11.918;2022-07-23T13:26:11;10.15;;;7.50;;
40945;SDS011;55635;50.264;11.918;2022-07-23T13:28:52;7.22;;;6.32;;
40945;SDS011;55635;50.264;11.918;2022-07-23T13:31:34;8.95;;;7.45;;
40945;SDS011;55635;50.264;11.918;2022-07-23T13:34:17;7.38;;;6.78;;
40945;SDS011;55635;50.264;11.918;2022-07-23T13:36:58;8.13;;;7.32;;
40945;SDS011;55635;50.264;11.918;2022-07-23T13:39:39;7.78;;;6.97;;
40945;SDS011;55635;50.264;11.918;2022-07-23T13:42:20;11.48;;;7.63;;
40945;SDS011;55635;50.264;11.918;2022-07-23T13:45:02;9.43;;;7.30;;
40945;SDS011;55635;50.264;11.918;2022-07-23T13:47:45;8.27;;;7.32;;
40945;SDS011;55635;50.264;11.918;2022-07-23T13:50:27;7.18;;;6.55;;
40945;SDS011;55635;50.264;11.918;2022-07-23T13:53:11;8.30;;;6.40;;
40945;SDS011;55635;50.264;11.918;2022-07-23T13:56:01;8.40;;;6.75;;
40945;SDS011;55635;50.264;11.918;2022-07-23T13:58:42;8.43;;;7.63;;
40945;SDS011;55635;50.264;11.918;2022-07-23T14:01:23;11.57;;;7.60;;
40945;SDS011;55635;50.264;11.918;2022-07-23T14:04:04;9.45;;;7.72;;
40945;SDS011;55635;50.264;11.918;2022-07-23T14:06:45;8.15;;;7.35;;
40945;SDS011;55635;50.264;11.918;2022-07-23T14:09:26;10.20;;;7.70;;
40945;SDS011;55635;50.264;11.918;2022-07-23T14:12:07;10.90;;;7.68;;
40945;SDS011;55635;50.264;11.918;2022-07-23T14:14:49;10.15;;;8.38;;
40945;SDS011;55635;50.264;11.918;2022-07-23T14:17:30;12.68;;;9.57;;
40945;SDS011;55635;50.264;11.918;2022-07-23T14:20:13;10.27;;;9.25;;
40945;SDS011;55635;50.264;11.918;2022-07-23T14:22:55;12.32;;;10.30;;
40945;SDS011;55635;50.264;11.918;2022-07-23T14:25:38;10.10;;;9.18;;
40945;SDS011;55635;50.264;11.918;2022-07-23T14:28:19;11.25;;;10.15;;
40945;SDS011;55635;50.264;11.918;2022-07-23T14:31:00;10.38;;;9.43;;
40945;SDS011;55635;50.264;11.918;2022-07-23T14:33:41;11.05;;;9.95;;
40945;SDS011;55635;50.264;11.918;2022-07-23T14:36:22;10.20;;;9.00;;
40945;SDS011;55635;50.264;11.918;2022-07-23T14:39:04;9.68;;;8.70;;
40945;SDS011;55635;50.264;11.918;2022-07-23T14:41:45;9.45;;;8.68;;
40945;SDS011;55635;50.264;11.918;2022-07-23T14:44:26;9.95;;;8.95;;
40945;SDS011;55635;50.264;11.918;2022-07-23T14:47:07;10.23;;;9.25;;
40945;SDS011;55635;50.264;11.918;2022-07-23T14:49:48;9.38;;;8.48;;
40945;SDS011;55635;50.264;11.918;2022-07-23T14:52:29;8.55;;;7.82;;
40945;SDS011;55635;50.264;11.918;2022-07-23T14:55:11;9.35;;;8.40;;
40945;SDS011;55635;50.264;11.918;2022-07-23T14:57:52;10.38;;;7.97;;
40945;SDS011;55635;50.264;11.918;2022-07-23T15:00:33;9.18;;;8.18;;
40945;SDS011;55635;50.264;11.918;2022-07-23T15:03:14;8.50;;;7.78;;
40945;SDS011;55635;50.264;11.918;2022-07-23T15:05:56;8.65;;;7.95;;
40945;SDS011;55635;50.264;11.918;2022-07-23T15:08:37;8.85;;;7.85;;
40945;SDS011;55635;50.264;11.918;2022-07-23T15:11:18;8.70;;;7.90;;
40945;SDS011;55635;50.264;11.918;2022-07-23T15:14:00;8.48;;;7.78;;
40945;SDS011;55635;50.264;11.918;2022-07-23T15:16:41;9.02;;;8.20;;
40945;SDS011;55635;50.264;11.918;2022-07-23T15:19:22;8.65;;;7.90;;
40945;SDS011;55635;50.264;11.918;2022-07-23T15:22:03;10.85;;;9.00;;
40945;SDS011;55635;50.264;11.918;2022-07-23T15:24:44;8.73;;;7.82;;
40945;SDS011;55635;50.264;11.918;2022-07-23T15:27:26;9.20;;;8.27;;
40945;SDS011;55635;50.264;11.918;2022-07-23T15:30:08;9.10;;;8.30;;
40945;SDS011;55635;50.264;11.918;2022-07-23T15:32:50;9.63;;;8.88;;
40945;SDS011;55635;50.264;11.918;2022-07-23T15:35:31;10.10;;;8.82;;
40945;SDS011;55635;50.264;11.918;2022-07-23T15:38:13;9.15;;;8.38;;
40945;SDS011;55635;50.264;11.918;2022-07-23T15:40:55;9.48;;;8.57;;
40945;SDS011;55635;50.264;11.918;2022-07-23T15:43:37;8.27;;;7.53;;
40945;SDS011;55635;50.264;11.918;2022-07-23T15:46:18;9.35;;;7.88;;
40945;SDS011;55635;50.264;11.918;2022-07-23T15:48:59;8.98;;;8.07;;
40945;SDS011;55635;50.264;11.918;2022-07-23T15:51:40;12.38;;;8.18;;
40945;SDS011;55635;50.264;11.918;2022-07-23T15:54:21;9.13;;;8.25;;
40945;SDS011;55635;50.264;11.918;2022-07-23T15:57:02;8.45;;;7.75;;
40945;SDS011;55635;50.264;11.918;2022-07-23T15:59:44;9.52;;;8.73;;
40945;SDS011;55635;50.264;11.918;2022-07-23T16:02:25;9.63;;;8.68;;
40945;SDS011;55635;50.264;11.918;2022-07-23T16:05:07;10.43;;;9.43;;
40945;SDS011;55635;50.264;11.918;2022-07-23T16:08:07;10.60;;;9.70;;
40945;SDS011;55635;50.264;11.918;2022-07-23T16:10:48;10.85;;;9.85;;
40945;SDS011;55635;50.264;11.918;2022-07-23T16:13:30;10.52;;;9.55;;
40945;SDS011;55635;50.264;11.918;2022-07-23T16:16:11;10.10;;;9.10;;
40945;SDS011;55635;50.264;11.918;2022-07-23T16:18:53;9.80;;;8.88;;
40945;SDS011;55635;50.264;11.918;2022-07-23T16:21:35;10.55;;;9.50;;
40945;SDS011;55635;50.264;11.918;2022-07-23T16:24:16;10.23;;;9.32;;
40945;SDS011;55635;50.264;11.918;2022-07-23T16:26:57;10.43;;;9.57;;
40945;SDS011;55635;50.264;11.918;2022-07-23T16:29:38;10.40;;;9.60;;